Time;durP1;ratioP1;P1;durP2;ratioP2;P2;SDS_P1;SDS_P2;PMS_P1;PMS_P2;Temp;Humidity;BMP_temperature;BMP_pressure;BME280_temperature;BME280_humidity;BME280_pressure;Samples;Min_cycle;Max_cycle;Signal;HPM_P1;HPM_P2
2022/06/18 00:01:41;;;;;;;3.85;2.78;;;16.80;61.30;;;;;;5098774;28;20215;-88
2022/06/18 00:04:10;;;;;;;4.07;3.28;;;16.80;62.50;;;;;;5087430;28;20224;-86
2022/06/18 00:06:42;;;;;;;3.58;3.28;;;16.70;63.80;;;;;;5095835;28;20227;-85
2022/06/18 00:09:11;;;;;;;3.70;3.30;;;16.80;64.40;;;;;;5089362;28;20200;-85
2022/06/18 00:14:23;;;;;;;3.30;3.00;;;16.80;61.80;;;;;;5085332;28;20266;-85
2022/06/18 00:16:52;;;;;;;4.15;3.13;;;16.70;64.10;;;;;;5088255;28;20201;-86
2022/06/18 00:19:19;;;;;;;4.25;3.00;;;16.60;64.50;;;;;;5095379;28;20208;-85
2022/06/18 00:21:47;;;;;;;6.28;3.20;;;16.60;61.60;;;;;;5087063;28;20200;-86
2022/06/18 00:24:17;;;;;;;3.55;3.22;;;16.50;62.40;;;;;;5096715;28;20235;-87
2022/06/18 00:26:47;;;;;;;3.50;3.20;;;16.50;63.20;;;;;;5093861;28;20204;-86
2022/06/18 00:29:18;;;;;;;3.70;3.40;;;16.40;64.60;;;;;;5093485;28;20201;-86
2022/06/18 00:31:45;;;;;;;5.07;3.30;;;16.40;63.80;;;;;;5095521;28;20212;-87
2022/06/18 00:34:13;;;;;;;6.60;3.25;;;16.40;63.50;;;;;;5086983;28;20201;-89
2022/06/18 00:36:42;;;;;;;3.38;3.08;;;16.30;65.00;;;;;;5076959;28;20194;-89
2022/06/18 00:39:12;;;;;;;3.38;2.97;;;16.30;65.10;;;;;;5083434;28;20208;-89
2022/06/18 00:41:41;;;;;;;4.75;3.20;;;16.30;64.50;;;;;;5083643;28;20217;-89
2022/06/18 00:44:18;;;;;;;3.40;2.90;;;16.20;64.90;;;;;;5077431;28;20618;-90
2022/06/18 00:46:53;;;;;;;4.03;2.92;;;16.20;66.20;;;;;;5085672;28;20197;-89
2022/06/18 00:49:25;;;;;;;6.50;3.00;;;16.20;63.40;;;;;;5087074;28;20206;-89
2022/06/18 00:51:57;;;;;;;4.85;3.05;;;16.20;64.40;;;;;;5092668;28;20202;-88
2022/06/18 00:54:29;;;;;;;4.07;2.95;;;16.20;65.90;;;;;;5081670;28;20191;-88
2022/06/18 00:57:01;;;;;;;3.55;2.85;;;16.20;64.70;;;;;;5092728;28;20217;-89
2022/06/18 00:59:34;;;;;;;6.75;3.15;;;16.20;63.80;;;;;;5088596;28;20544;-88
2022/06/18 01:02:02;;;;;;;2.97;2.78;;;16.20;63.60;;;;;;5077247;28;20661;-90
2022/06/18 01:04:32;;;;;;;3.78;3.33;;;16.30;64.10;;;;;;5082303;28;20217;-89
2022/06/18 01:07:04;;;;;;;3.53;3.22;;;16.20;64.40;;;;;;5083823;28;20184;-90
2022/06/18 01:09:32;;;;;;;3.25;3.00;;;16.10;66.30;;;;;;5094475;28;20213;-88
2022/06/18 01:12:00;;;;;;;4.70;3.10;;;16.00;67.80;;;;;;5080332;28;20196;-89
2022/06/18 01:14:28;;;;;;;3.92;2.90;;;15.90;69.60;;;;;;5082725;28;20202;-88
2022/06/18 01:17:00;;;;;;;3.78;3.03;;;16.00;69.20;;;;;;5082183;28;20201;-89
2022/06/18 01:19:44;;;;;;;4.10;3.30;;;16.10;68.40;;;;;;5082039;28;20196;-88
2022/06/18 01:22:26;;;;;;;4.18;3.00;;;16.20;67.60;;;;;;5073722;28;20204;-89
2022/06/18 01:24:58;;;;;;;4.13;3.03;;;16.20;67.20;;;;;;5081496;28;20221;-89
2022/06/18 01:27:27;;;;;;;5.03;3.33;;;16.10;68.00;;;;;;5081830;28;20201;-90
2022/06/18 01:29:54;;;;;;;3.53;3.20;;;16.00;69.10;;;;;;5078603;28;20231;-89
2022/06/18 01:32:22;;;;;;;3.78;3.47;;;16.00;71.60;;;;;;5085842;28;20205;-89
2022/06/18 01:34:50;;;;;;;3.80;3.30;;;16.00;69.10;;;;;;5083994;28;20205;-89
2022/06/18 01:37:17;;;;;;;3.92;2.92;;;16.00;69.70;;;;;;5085472;28;20211;-89
2022/06/18 01:39:48;;;;;;;3.88;3.30;;;16.00;70.60;;;;;;5080283;28;20251;-89
2022/06/18 01:42:20;;;;;;;3.75;3.20;;;16.00;70.60;;;;;;5091466;28;20228;-89
2022/06/18 01:44:50;;;;;;;4.07;3.05;;;15.80;72.00;;;;;;5085999;28;20576;-89
2022/06/18 01:47:21;;;;;;;4.07;3.10;;;15.70;73.60;;;;;;5085599;28;20209;-89
2022/06/18 01:49:53;;;;;;;5.13;3.60;;;15.60;75.60;;;;;;5079914;28;20207;-90
2022/06/18 01:52:24;;;;;;;3.60;3.22;;;15.70;77.80;;;;;;5081799;28;20291;-89
2022/06/18 01:54:55;;;;;;;3.33;3.03;;;15.70;75.00;;;;;;5079878;28;20204;-91
2022/06/18 01:57:28;;;;;;;3.78;3.47;;;15.80;75.50;;;;;;5085781;28;20204;-89
2022/06/18 01:59:58;;;;;;;4.35;3.20;;;15.80;74.00;;;;;;5088400;28;20196;-89
2022/06/18 02:02:39;;;;;;;3.33;3.03;;;15.80;75.40;;;;;;5083219;28;20212;-89
2022/06/18 02:05:07;;;;;;;3.72;3.40;;;15.80;74.50;;;;;;5089478;28;20224;-88
2022/06/18 02:07:52;;;;;;;3.75;3.40;;;15.80;75.00;;;;;;5083224;28;20188;-89
2022/06/18 02:10:22;;;;;;;6.30;3.70;;;15.70;75.70;;;;;;5081334;28;20199;-89
2022/06/18 02:13:12;;;;;;;4.30;3.40;;;15.60;76.10;;;;;;5080611;28;20656;-88
2022/06/18 02:15:41;;;;;;;3.83;3.30;;;15.50;76.00;;;;;;5083140;28;20208;-89
2022/06/18 02:18:12;;;;;;;4.93;3.45;;;15.60;77.70;;;;;;5088279;28;20197;-90
2022/06/18 02:20:54;;;;;;;3.55;2.90;;;15.60;77.70;;;;;;5081186;28;20660;-89
2022/06/18 02:23:27;;;;;;;5.03;3.15;;;15.50;78.50;;;;;;5084008;28;20200;-89
2022/06/18 02:26:09;;;;;;;4.75;2.90;;;15.40;77.60;;;;;;5088744;28;20557;-89
2022/06/18 02:28:42;;;;;;;3.30;3.00;;;15.40;77.60;;;;;;5082019;28;20204;-89
2022/06/18 02:31:30;;;;;;;3.40;3.10;;;15.30;77.50;;;;;;5079142;28;20562;-89
2022/06/18 02:34:09;;;;;;;4.15;3.40;;;15.20;78.70;;;;;;5078407;28;20667;-89
2022/06/18 02:36:40;;;;;;;3.83;3.05;;;15.10;80.60;;;;;;5077861;28;20201;-89
2022/06/18 02:39:18;;;;;;;4.43;3.22;;;15.00;80.20;;;;;;5079266;28;20201;-89
2022/06/18 02:42:08;;;;;;;5.30;3.05;;;15.00;81.20;;;;;;5083316;28;20213;-89
2022/06/18 02:44:43;;;;;;;3.75;3.40;;;15.00;80.70;;;;;;5074018;28;20203;-89
2022/06/18 02:47:16;;;;;;;4.75;3.42;;;15.00;81.20;;;;;;5075907;28;20193;-89
2022/06/18 02:49:51;;;;;;;5.57;3.13;;;14.90;80.60;;;;;;5089627;28;20185;-88
2022/06/18 02:52:22;;;;;;;3.53;3.22;;;14.90;80.60;;;;;;5090236;28;20192;-89
2022/06/18 02:54:51;;;;;;;3.97;3.13;;;14.80;80.90;;;;;;5088230;28;20657;-89
2022/06/18 02:57:29;;;;;;;3.33;3.03;;;14.80;80.90;;;;;;5089983;28;20640;-89
2022/06/18 02:59:57;;;;;;;4.63;3.22;;;14.90;80.80;;;;;;5087425;28;20215;-89
2022/06/18 03:02:33;;;;;;;4.72;3.47;;;15.00;80.80;;;;;;5078715;28;20541;-88
2022/06/18 03:05:28;;;;;;;3.67;3.35;;;15.10;78.60;;;;;;5077572;28;20189;-89
2022/06/18 03:08:03;;;;;;;3.33;3.00;;;15.20;77.40;;;;;;5081792;28;20235;-89
2022/06/18 03:13:39;;;;;;;3.50;3.20;;;15.10;77.40;;;;;;5081634;28;20276;-88
2022/06/18 03:16:11;;;;;;;4.10;3.33;;;15.10;76.70;;;;;;5077907;28;20204;-88
2022/06/18 03:18:40;;;;;;;6.78;3.58;;;15.00;77.30;;;;;;5083333;28;20284;-89
2022/06/18 03:21:16;;;;;;;5.68;3.45;;;15.00;77.30;;;;;;5076697;28;20205;-89
2022/06/18 03:23:43;;;;;;;6.53;3.30;;;15.00;77.30;;;;;;5076304;28;20196;-89
2022/06/18 03:26:21;;;;;;;3.03;2.83;;;15.00;77.40;;;;;;5074996;28;20201;-89
2022/06/18 03:28:51;;;;;;;4.82;3.17;;;15.00;77.30;;;;;;5086307;28;20279;-89
2022/06/18 03:31:46;;;;;;;3.42;3.08;;;15.10;77.40;;;;;;5083574;28;20195;-89
2022/06/18 03:34:15;;;;;;;3.40;2.97;;;15.10;77.40;;;;;;5081088;28;20189;-88
2022/06/18 03:37:08;;;;;;;3.28;2.97;;;15.10;77.40;;;;;;5086037;28;20258;-89
2022/06/18 03:40:21;;;;;;;3.40;3.10;;;15.00;77.30;;;;;;5083289;28;20209;-89
2022/06/18 03:43:21;;;;;;;8.27;3.15;;;15.00;77.30;;;;;;5078730;28;20327;-89
2022/06/18 03:45:56;;;;;;;4.55;3.38;;;15.10;77.40;;;;;;5083177;28;20217;-90
2022/06/18 03:48:47;;;;;;;3.35;3.05;;;15.00;77.30;;;;;;5085811;28;20196;-89
2022/06/18 03:51:22;;;;;;;4.47;3.10;;;15.00;77.30;;;;;;5073156;28;20261;-89
2022/06/18 03:54:04;;;;;;;4.15;3.28;;;15.00;77.30;;;;;;5081117;28;20189;-88
2022/06/18 03:56:34;;;;;;;4.82;3.20;;;15.00;77.30;;;;;;5088099;28;20213;-89
2022/06/18 03:59:10;;;;;;;4.45;2.88;;;15.10;77.40;;;;;;5084737;28;20197;-88
2022/06/18 04:02:02;;;;;;;4.68;3.15;;;15.10;76.70;;;;;;5087652;28;20200;-89
2022/06/18 04:04:46;;;;;;;4.03;3.10;;;15.20;77.40;;;;;;5080431;28;20302;-89
2022/06/18 04:07:20;;;;;;;3.20;2.90;;;15.30;77.50;;;;;;5085802;28;20209;-89
2022/06/18 04:10:01;;;;;;;3.50;3.20;;;15.30;77.50;;;;;;5083398;28;20194;-89
2022/06/18 04:12:33;;;;;;;3.40;2.78;;;15.40;77.60;;;;;;5092768;28;20200;-88
2022/06/18 04:15:00;;;;;;;3.25;3.00;;;15.40;77.60;;;;;;5091978;28;20199;-88
2022/06/18 04:18:09;;;;;;;5.40;3.33;;;15.40;76.30;;;;;;5087337;28;20208;-89
2022/06/18 04:20:40;;;;;;;3.97;3.20;;;15.40;75.80;;;;;;5083426;28;20201;-89
2022/06/18 04:23:11;;;;;;;3.50;2.80;;;15.50;76.90;;;;;;5088437;28;20199;-89
2022/06/18 04:25:51;;;;;;;6.75;3.00;;;15.50;75.60;;;;;;5091125;28;20209;-89
2022/06/18 04:28:33;;;;;;;3.53;3.00;;;15.60;75.60;;;;;;5078275;28;20192;-89
2022/06/18 04:31:00;;;;;;;4.28;3.20;;;15.70;75.30;;;;;;5079626;28;20193;-88
2022/06/18 04:33:45;;;;;;;5.18;2.92;;;15.70;73.50;;;;;;5086624;28;21009;-89
2022/06/18 04:36:29;;;;;;;4.05;2.80;;;15.80;75.00;;;;;;5089423;28;20189;-88
2022/06/18 04:39:04;;;;;;;3.33;3.10;;;15.90;73.40;;;;;;5081949;28;20552;-89
2022/06/18 04:41:31;;;;;;;5.00;2.95;;;15.90;73.80;;;;;;5087071;28;20220;-89
2022/06/18 04:44:03;;;;;;;5.82;2.70;;;16.00;72.90;;;;;;5094842;28;20207;-88
2022/06/18 04:46:45;;;;;;;2.88;2.67;;;16.10;72.80;;;;;;5082763;28;20205;-89
2022/06/18 04:49:15;;;;;;;3.70;2.50;;;16.20;71.30;;;;;;5087732;28;20904;-89
2022/06/18 04:51:47;;;;;;;3.33;2.78;;;16.20;70.30;;;;;;5089488;28;20569;-89
2022/06/18 04:54:21;;;;;;;2.80;2.50;;;16.40;69.90;;;;;;5086823;28;20268;-88
2022/06/18 04:56:51;;;;;;;2.95;2.75;;;16.40;66.40;;;;;;5093156;28;20253;-89
2022/06/18 04:59:27;;;;;;;2.88;2.50;;;16.60;66.20;;;;;;5085045;28;20196;-89
2022/06/18 05:02:00;;;;;;;2.75;2.50;;;17.00;63.90;;;;;;5081416;28;20196;-89
2022/06/18 05:04:56;;;;;;;3.20;2.90;;;17.20;63.80;;;;;;5086531;28;20204;-89
2022/06/18 05:07:41;;;;;;;2.88;2.45;;;17.40;62.90;;;;;;5077532;28;20767;-88
2022/06/18 05:10:09;;;;;;;3.38;2.50;;;17.50;57.60;;;;;;5081039;28;20599;-89
2022/06/18 05:12:45;;;;;;;2.58;2.25;;;17.60;57.40;;;;;;5083128;28;20192;-89
2022/06/18 05:15:13;;;;;;;2.85;2.60;;;17.60;56.90;;;;;;5091952;28;20228;-89
2022/06/18 05:17:51;;;;;;;2.80;2.60;;;17.70;58.00;;;;;;5083812;28;20201;-88
2022/06/18 05:20:27;;;;;;;2.53;2.33;;;17.70;56.90;;;;;;5077111;28;20204;-89
2022/06/18 05:23:16;;;;;;;2.92;2.35;;;17.80;56.90;;;;;;5083629;28;20201;-89
2022/06/18 05:26:12;;;;;;;3.67;2.63;;;17.80;53.90;;;;;;5079428;28;20217;-88
2022/06/18 05:28:45;;;;;;;6.70;2.65;;;18.00;55.30;;;;;;5083978;28;20208;-89
2022/06/18 05:31:12;;;;;;;2.65;2.45;;;18.30;54.40;;;;;;5085318;28;20193;-86
2022/06/18 05:33:39;;;;;;;3.13;2.35;;;18.50;54.60;;;;;;5095330;28;20200;-88
2022/06/18 05:36:19;;;;;;;2.40;2.20;;;18.50;55.70;;;;;;5092125;28;20189;-85
2022/06/18 05:38:49;;;;;;;2.50;2.30;;;18.60;52.90;;;;;;5093437;28;20193;-86
2022/06/18 05:41:39;;;;;;;2.90;2.58;;;18.90;50.70;;;;;;5094158;28;20299;-86
2022/06/18 05:44:06;;;;;;;2.63;2.40;;;19.40;47.30;;;;;;5088223;28;20671;-85
2022/06/18 05:46:51;;;;;;;5.10;2.20;;;19.70;44.60;;;;;;5096827;28;20675;-86
2022/06/18 05:49:18;;;;;;;2.70;2.30;;;20.10;42.00;;;;;;5080599;28;20201;-85
2022/06/18 05:51:57;;;;;;;4.63;2.20;;;20.30;40.70;;;;;;5090725;28;20200;-86
2022/06/18 05:54:29;;;;;;;2.70;2.42;;;20.50;38.50;;;;;;5086111;28;20197;-86
2022/06/18 05:57:14;;;;;;;2.90;2.30;;;20.50;38.20;;;;;;5080803;28;20217;-86
2022/06/18 05:59:41;;;;;;;5.15;2.20;;;20.60;38.30;;;;;;5081486;28;20209;-87
2022/06/18 06:02:18;;;;;;;2.35;2.17;;;20.60;38.90;;;;;;5092738;28;20195;-86
2022/06/18 06:05:09;;;;;;;2.40;2.20;;;20.50;38.50;;;;;;5097527;28;20195;-86
2022/06/18 06:07:51;;;;;;;2.75;2.20;;;20.60;37.80;;;;;;5088582;28;20687;-85
2022/06/18 06:13:22;;;;;;;2.80;2.55;;;20.70;40.30;;;;;;5093457;28;20456;-86
2022/06/18 06:15:49;;;;;;;3.83;2.38;;;20.70;39.60;;;;;;5091277;28;20203;-87
2022/06/18 06:18:23;;;;;;;2.47;2.28;;;20.70;40.80;;;;;;5076666;28;20201;-86
2022/06/18 06:20:52;;;;;;;2.50;2.30;;;20.70;39.40;;;;;;5087650;28;20242;-86
2022/06/18 06:23:20;;;;;;;3.28;2.50;;;20.70;38.70;;;;;;5086364;28;20193;-86
2022/06/18 06:25:50;;;;;;;5.35;2.40;;;20.60;37.10;;;;;;5087894;28;20201;-86
2022/06/18 06:28:20;;;;;;;4.00;2.30;;;20.70;37.30;;;;;;5084596;28;20196;-85
2022/06/18 06:30:52;;;;;;;2.55;2.35;;;20.70;36.60;;;;;;5085854;28;20208;-86
2022/06/18 06:33:21;;;;;;;2.92;2.22;;;20.80;34.30;;;;;;5082442;28;20201;-85
2022/06/18 06:36:29;;;;;;;2.53;2.33;;;20.80;35.80;;;;;;5091204;28;20192;-87
2022/06/18 06:38:57;;;;;;;2.47;2.28;;;20.90;35.00;;;;;;5086558;28;20201;-88
2022/06/18 06:41:30;;;;;;;3.03;2.25;;;21.00;32.90;;;;;;5095558;28;20213;-87
2022/06/18 06:44:10;;;;;;;3.20;2.17;;;21.10;33.40;;;;;;5088180;28;20553;-87
2022/06/18 06:46:39;;;;;;;2.72;2.42;;;21.20;33.10;;;;;;5081977;28;20225;-90
2022/06/18 06:49:09;;;;;;;2.50;2.20;;;21.30;33.20;;;;;;5087859;28;20194;-88
2022/06/18 06:51:40;;;;;;;2.40;2.20;;;21.40;33.20;;;;;;5079521;28;20243;-86
2022/06/18 06:54:15;;;;;;;2.30;2.03;;;21.40;32.50;;;;;;5090833;28;20282;-87
2022/06/18 06:57:21;;;;;;;2.65;2.45;;;21.60;32.30;;;;;;5085027;28;20214;-88
2022/06/18 07:00:04;;;;;;;11.52;10.00;;;21.60;33.50;;;;;;5076045;28;20229;-87
2022/06/18 07:02:51;;;;;;;2.10;1.90;;;21.80;31.80;;;;;;5085418;28;20197;-85
2022/06/18 07:05:27;;;;;;;3.65;2.55;;;21.90;31.60;;;;;;5087072;28;20197;-86
2022/06/18 07:07:54;;;;;;;2.35;2.05;;;22.10;29.30;;;;;;5078894;28;20205;-87
2022/06/18 07:10:47;;;;;;;2.20;2.00;;;22.20;28.20;;;;;;5080290;28;20808;-87
2022/06/18 07:13:17;;;;;;;2.38;2.17;;;22.40;29.10;;;;;;5084867;28;20196;-86
2022/06/18 07:15:45;;;;;;;3.28;2.10;;;22.70;28.30;;;;;;5083273;28;20188;-85
2022/06/18 07:18:33;;;;;;;2.20;2.00;;;22.80;27.60;;;;;;5082839;28;20204;-85
2022/06/18 07:21:16;;;;;;;2.05;1.90;;;23.20;26.90;;;;;;5077032;28;20254;-86
2022/06/18 07:23:57;;;;;;;3.70;2.10;;;23.50;28.20;;;;;;5083832;28;20225;-87
2022/06/18 07:26:24;;;;;;;3.55;2.10;;;23.70;25.10;;;;;;5077877;28;20213;-82
2022/06/18 07:28:53;;;;;;;2.63;2.22;;;24.10;26.70;;;;;;5079318;28;20197;-82
2022/06/18 07:31:29;;;;;;;3.30;2.08;;;24.90;24.20;;;;;;5082369;28;20196;-82
2022/06/18 07:34:06;;;;;;;2.45;2.25;;;25.10;23.20;;;;;;5085009;28;20199;-83
2022/06/18 07:36:39;;;;;;;2.05;1.92;;;25.30;23.40;;;;;;5080098;28;20282;-84
2022/06/18 07:39:15;;;;;;;3.70;2.00;;;25.20;22.80;;;;;;5077128;28;20637;-83
2022/06/18 07:41:49;;;;;;;2.65;1.90;;;25.00;22.00;;;;;;5081463;28;20265;-81
2022/06/18 07:44:18;;;;;;;2.67;2.03;;;24.80;24.30;;;;;;5078796;28;20224;-84
2022/06/18 07:46:52;;;;;;;3.65;2.03;;;24.70;22.20;;;;;;5085324;28;20212;-83
2022/06/18 07:49:27;;;;;;;2.80;2.08;;;24.70;23.10;;;;;;5089988;28;20250;-85
2022/06/18 07:51:58;;;;;;;3.40;2.10;;;24.60;22.40;;;;;;5079244;28;20597;-84
2022/06/18 07:54:25;;;;;;;1.95;1.83;;;24.70;23.70;;;;;;5085728;28;20197;-84
2022/06/18 07:56:52;;;;;;;3.20;2.08;;;25.00;24.40;;;;;;5077872;28;20916;-82
2022/06/18 07:59:20;;;;;;;4.72;2.20;;;25.20;21.90;;;;;;5082360;28;20209;-81
2022/06/18 08:01:57;;;;;;;4.43;1.90;;;25.20;21.30;;;;;;5088459;28;20247;-83
2022/06/18 08:04:27;;;;;;;2.28;1.90;;;25.30;21.70;;;;;;5088235;28;20188;-86
2022/06/18 08:06:54;;;;;;;2.08;1.80;;;25.60;19.60;;;;;;5085888;28;20270;-83
2022/06/18 08:09:33;;;;;;;3.22;2.08;;;25.70;18.90;;;;;;5084807;28;20197;-85
2022/06/18 08:12:01;;;;;;;2.10;1.95;;;26.00;19.40;;;;;;5092243;28;20251;-85
2022/06/18 08:14:35;;;;;;;2.90;1.75;;;26.40;19.50;;;;;;5084446;28;20207;-84
2022/06/18 08:17:09;;;;;;;2.30;2.08;;;26.30;15.50;;;;;;5083865;28;20205;-87
2022/06/18 08:19:36;;;;;;;1.90;1.80;;;26.60;15.70;;;;;;5087156;28;20197;-86
2022/06/18 08:22:22;;;;;;;1.92;1.80;;;28.30;15.60;;;;;;5089759;28;20207;-86
2022/06/18 08:24:50;;;;;;;3.15;1.83;;;31.10;11.60;;;;;;5083316;28;20195;-85
2022/06/18 08:27:17;;;;;;;2.33;2.08;;;32.40;9.30;;;;;;5086358;28;20216;-86
2022/06/18 08:29:46;;;;;;;4.57;2.40;;;35.10;7.20;;;;;;5089211;28;20206;-86
2022/06/18 08:32:56;;;;;;;2.50;2.30;;;36.10;2.80;;;;;;5102413;28;20177;-86
2022/06/18 08:35:27;;;;;;;2.92;2.67;;;36.80;2.70;;;;;;5096648;28;20271;-83
2022/06/18 08:38:08;;;;;;;2.60;2.40;;;37.80;1.00;;;;;;5082842;28;20252;-85
2022/06/18 08:40:56;;;;;;;2.50;2.40;;;35.60;1.70;;;;;;5085786;28;20203;-84
2022/06/18 08:44:03;;;;;;;2.85;2.65;;;35.20;3.90;;;;;;5095625;28;20200;-85
2022/06/18 08:46:58;;;;;;;3.00;2.80;;;36.00;3.30;;;;;;5087529;28;20208;-84
2022/06/18 08:49:56;;;;;;;3.00;2.80;;;37.50;1.00;;;;;;5086600;28;20543;-88
2022/06/18 08:52:42;;;;;;;3.15;2.95;;;39.50;1.80;;;;;;5096665;28;20197;-85
2022/06/18 08:55:18;;;;;;;3.08;2.85;;;39.20;1.00;;;;;;5095155;28;20853;-84
2022/06/18 08:58:04;;;;;;;3.67;3.47;;;38.20;1.00;;;;;;5082787;28;20287;-85
2022/06/18 09:01:05;;;;;;;3.42;3.10;;;38.60;1.00;;;;;;5085255;28;20203;-85
2022/06/18 09:03:46;;;;;;;3.17;2.90;;;37.50;1.00;;;;;;5044886;28;20191;-85
2022/06/18 09:06:28;;;;;;;3.40;3.20;;;38.10;1.00;;;;;;5090830;28;20189;-86
2022/06/18 09:09:07;;;;;;;3.72;3.53;;;39.00;1.00;;;;;;5085212;28;20204;-86
2022/06/18 09:12:02;;;;;;;4.38;3.80;;;40.60;1.00;;;;;;5086036;28;20199;-84
2022/06/18 09:14:52;;;;;;;4.60;4.20;;;41.20;1.00;;;;;;5074663;28;20223;-85
2022/06/18 09:17:38;;;;;;;5.15;4.72;;;42.30;1.00;;;;;;5088701;28;20225;-87
2022/06/18 09:20:11;;;;;;;5.32;5.03;;;42.20;1.00;;;;;;5078288;28;20651;-88
2022/06/18 09:22:53;;;;;;;5.00;4.60;;;41.20;1.00;;;;;;5081054;28;20191;-88
2022/06/18 09:25:41;;;;;;;4.68;4.47;;;39.80;1.00;;;;;;5080313;28;20196;-87
2022/06/18 09:28:12;;;;;;;5.00;4.60;;;39.90;1.00;;;;;;5085310;28;20227;-86
2022/06/18 09:30:53;;;;;;;5.20;4.80;;;40.00;1.00;;;;;;5086807;28;20198;-85
2022/06/18 09:33:37;;;;;;;4.90;4.60;;;40.30;1.00;;;;;;5090057;28;20213;-86
2022/06/18 09:36:26;;;;;;;4.82;4.45;;;41.50;1.00;;;;;;5090410;28;20198;-86
2022/06/18 09:39:17;;;;;;;5.10;4.72;;;40.80;1.00;;;;;;5081097;28;20204;-86
2022/06/18 09:42:03;;;;;;;7.90;7.40;;;40.80;1.00;;;;;;5080221;28;20227;-86
2022/06/18 09:44:51;;;;;;;8.85;8.23;;;41.40;1.00;;;;;;5088152;28;20247;-86
2022/06/18 09:47:33;;;;;;;8.07;7.57;;;41.00;1.00;;;;;;5087353;28;20557;-86
2022/06/18 09:50:01;;;;;;;5.82;5.50;;;41.60;1.00;;;;;;5090631;28;20626;-88
2022/06/18 09:53:02;;;;;;;6.70;6.30;;;41.20;1.00;;;;;;5091657;28;20198;-88
2022/06/18 09:55:37;;;;;;;6.80;6.40;;;41.90;1.00;;;;;;5067940;28;20220;-88
2022/06/18 09:58:07;;;;;;;6.75;6.00;;;42.50;1.00;;;;;;5093845;28;20198;-88
2022/06/18 10:00:42;;;;;;;6.75;6.35;;;42.50;1.00;;;;;;5092042;28;20651;-89
2022/06/18 10:09:25;;;;;;;6.13;5.82;;;40.90;1.00;;;;;;5082377;28;20253;-88
2022/06/18 10:12:16;;;;;;;5.70;5.40;;;39.70;1.00;;;;;;5087332;28;20197;-88
2022/06/18 10:14:46;;;;;;;8.07;5.70;;;39.20;1.00;;;;;;5084688;28;20724;-87
2022/06/18 10:17:35;;;;;;;6.35;5.95;;;40.20;1.00;;;;;;5093003;28;20205;-87
2022/06/18 10:20:26;;;;;;;6.30;5.90;;;39.70;1.00;;;;;;5081271;28;20185;-87
2022/06/18 10:23:05;;;;;;;6.25;5.95;;;41.10;1.00;;;;;;5086719;28;20189;-87
2022/06/18 10:25:43;;;;;;;6.15;5.70;;;41.30;1.00;;;;;;5085215;28;21165;-88
2022/06/18 10:28:18;;;;;;;5.38;5.07;;;41.10;1.00;;;;;;5097913;28;20220;-87
2022/06/18 10:30:53;;;;;;;5.82;5.38;;;40.60;1.00;;;;;;5100352;28;21244;-87
2022/06/18 10:33:33;;;;;;;5.25;4.95;;;40.90;1.00;;;;;;5089606;28;20270;-87
2022/06/18 10:36:15;;;;;;;7.45;5.03;;;40.60;1.00;;;;;;5091777;28;20270;-87
2022/06/18 10:38:58;;;;;;;5.20;4.80;;;40.80;1.00;;;;;;5100639;28;20208;-91
2022/06/18 10:41:32;;;;;;;4.90;4.50;;;41.00;1.00;;;;;;5097946;28;20224;-87
2022/06/18 10:44:22;;;;;;;4.75;4.45;;;41.00;1.00;;;;;;5089325;28;20192;-87
2022/06/18 10:47:00;;;;;;;5.28;4.25;;;41.20;1.00;;;;;;5092619;28;20256;-88
2022/06/18 10:49:30;;;;;;;4.50;4.10;;;41.40;1.00;;;;;;5096901;28;20196;-87
2022/06/18 10:52:17;;;;;;;4.40;4.10;;;40.40;1.00;;;;;;5104636;28;20203;-87
2022/06/18 10:54:52;;;;;;;3.90;3.65;;;40.50;1.00;;;;;;5094016;28;20204;-87
2022/06/18 10:57:26;;;;;;;4.00;3.70;;;39.30;1.00;;;;;;5085903;28;20211;-89
2022/06/18 10:59:53;;;;;;;3.78;3.55;;;38.40;1.00;;;;;;5089512;28;20208;-86
2022/06/18 11:02:36;;;;;;;3.65;3.35;;;38.80;1.50;;;;;;5093739;28;20651;-86
2022/06/18 11:05:06;;;;;;;4.13;3.22;;;38.60;1.40;;;;;;5105634;28;20268;-89
2022/06/18 11:08:04;;;;;;;3.50;3.00;;;38.10;1.00;;;;;;5109740;28;20626;-85
2022/06/18 11:10:45;;;;;;;5.03;2.92;;;37.30;1.00;;;;;;5089284;28;20227;-88
2022/06/18 11:13:22;;;;;;;2.83;2.63;;;36.40;1.00;;;;;;5075812;28;20234;-85
2022/06/18 11:16:39;;;;;;;2.85;2.58;;;35.50;1.00;;;;;;5076685;28;20197;-87
2022/06/18 11:19:34;;;;;;;3.05;2.60;;;34.80;1.60;;;;;;5082933;28;20188;-86
2022/06/18 11:22:18;;;;;;;2.47;2.28;;;34.00;4.50;;;;;;5074617;28;20577;-87
2022/06/18 11:24:54;;;;;;;3.00;2.30;;;33.70;7.90;;;;;;5073235;28;20215;-88
2022/06/18 11:27:22;;;;;;;2.50;2.30;;;33.20;5.70;;;;;;5080968;28;20206;-86
2022/06/18 11:29:59;;;;;;;4.40;2.35;;;32.80;7.20;;;;;;5085473;28;20203;-84
2022/06/18 11:32:33;;;;;;;3.70;2.33;;;33.00;10.60;;;;;;5080623;28;20215;-86
2022/06/18 11:35:05;;;;;;;5.28;2.38;;;32.80;4.80;;;;;;5077713;28;20671;-84
2022/06/18 11:37:34;;;;;;;2.65;2.42;;;32.90;5.10;;;;;;5082033;28;21164;-85
2022/06/18 11:40:18;;;;;;;5.30;2.30;;;32.50;5.40;;;;;;5081819;28;20676;-86
2022/06/18 11:42:54;;;;;;;4.93;2.40;;;32.70;4.70;;;;;;5086890;28;20218;-85
2022/06/18 11:45:52;;;;;;;5.68;2.60;;;32.70;4.10;;;;;;5081149;28;20197;-87
2022/06/18 11:48:41;;;;;;;2.17;1.95;;;32.70;7.20;;;;;;5025824;28;20613;-85
2022/06/18 11:51:14;;;;;;;3.92;2.10;;;32.70;6.10;;;;;;5027248;28;20583;-85
2022/06/18 11:53:57;;;;;;;2.90;2.20;;;32.60;6.60;;;;;;5026645;28;20995;-83
2022/06/18 11:56:35;;;;;;;6.35;2.30;;;32.60;8.30;;;;;;5022269;28;20214;-88
2022/06/18 11:59:11;;;;;;;4.28;2.40;;;32.10;6.70;;;;;;5024206;28;20198;-86
2022/06/18 12:01:46;;;;;;;4.28;2.40;;;31.60;6.30;;;;;;5031550;28;20202;-85
2022/06/18 12:04:24;;;;;;;4.72;2.38;;;31.30;7.50;;;;;;5027472;28;20191;-86
2022/06/18 12:06:56;;;;;;;3.85;2.40;;;31.60;8.90;;;;;;5025689;28;20199;-84
2022/06/18 12:09:41;;;;;;;6.30;2.58;;;31.60;6.90;;;;;;5022763;28;20219;-84
2022/06/18 12:12:45;;;;;;;5.22;2.28;;;31.80;6.50;;;;;;5023623;28;20207;-85
2022/06/18 12:15:20;;;;;;;7.28;2.25;;;31.50;5.70;;;;;;4948621;28;20212;-87
2022/06/18 12:18:06;;;;;;;4.80;2.30;;;31.60;7.80;;;;;;4952617;28;20211;-85
2022/06/18 12:20:44;;;;;;;16.67;14.98;;;31.70;7.80;;;;;;4946163;29;21687;-86
2022/06/18 12:23:18;;;;;;;4.60;2.28;;;31.80;6.90;;;;;;4955060;28;20210;-88
2022/06/18 12:25:57;;;;;;;13.43;2.80;;;31.70;6.60;;;;;;5009850;28;20203;-85
2022/06/18 12:28:32;;;;;;;3.33;2.70;;;31.80;7.90;;;;;;5005198;28;20260;-85
2022/06/18 12:31:05;;;;;;;4.63;2.20;;;31.60;7.80;;;;;;5011425;28;20205;-85
2022/06/18 12:33:59;;;;;;;4.15;2.60;;;31.40;8.20;;;;;;5011009;28;20202;-86
2022/06/18 12:36:33;;;;;;;4.78;2.40;;;31.70;9.30;;;;;;4987826;28;20210;-87
2022/06/18 12:39:18;;;;;;;4.55;2.33;;;31.10;7.60;;;;;;5011874;28;20213;-85
2022/06/18 12:41:50;;;;;;;4.78;2.65;;;31.00;7.60;;;;;;5010895;28;20226;-87
2022/06/18 12:44:31;;;;;;;4.22;2.50;;;31.10;9.20;;;;;;5006837;28;20277;-85
2022/06/18 12:47:04;;;;;;;5.25;2.90;;;30.90;9.00;;;;;;5010713;28;20203;-85
2022/06/18 12:49:50;;;;;;;5.38;2.70;;;31.10;8.40;;;;;;5005842;28;20428;-84
2022/06/18 12:52:30;;;;;;;8.60;3.10;;;31.10;9.20;;;;;;5093032;28;20203;-85
2022/06/18 12:55:06;;;;;;;7.65;2.45;;;31.40;8.60;;;;;;5085675;28;20196;-85
2022/06/18 12:57:52;;;;;;;4.60;2.45;;;31.30;7.60;;;;;;5090312;28;20208;-84
2022/06/18 13:00:28;;;;;;;6.22;2.53;;;31.20;8.50;;;;;;5092867;28;20535;-83
2022/06/18 13:03:23;;;;;;;5.00;2.70;;;31.40;10.40;;;;;;5083533;28;20200;-84
2022/06/18 13:06:06;;;;;;;6.60;2.90;;;31.00;7.70;;;;;;5083717;28;20189;-84
2022/06/18 13:08:47;;;;;;;3.53;2.28;;;30.80;8.50;;;;;;5079950;28;20212;-83
2022/06/18 13:11:25;;;;;;;15.18;6.53;;;30.80;8.20;;;;;;5094569;28;20228;-86
2022/06/18 13:14:09;;;;;;;5.65;2.30;;;31.10;8.40;;;;;;5088412;28;20666;-85
2022/06/18 13:17:00;;;;;;;6.28;3.20;;;31.00;9.50;;;;;;5096157;28;20259;-85
2022/06/18 13:20:06;;;;;;;9.45;3.20;;;31.20;10.00;;;;;;5086170;28;20208;-86
2022/06/18 13:22:34;;;;;;;8.63;3.17;;;31.30;8.90;;;;;;5092194;28;20262;-85
2022/06/18 13:28:16;;;;;;;8.27;2.78;;;31.40;7.70;;;;;;5090599;28;20203;-85
2022/06/18 13:31:07;;;;;;;7.70;2.83;;;31.40;7.70;;;;;;5093006;28;20204;-85
2022/06/18 13:33:43;;;;;;;9.93;2.80;;;31.20;7.60;;;;;;5094790;28;20192;-85
2022/06/18 13:36:19;;;;;;;7.65;2.80;;;30.90;8.60;;;;;;5093733;28;20196;-88
2022/06/18 13:38:54;;;;;;;6.47;2.58;;;30.70;7.70;;;;;;5089719;28;20214;-87
2022/06/18 13:41:28;;;;;;;12.00;2.88;;;30.90;9.10;;;;;;5109795;28;20219;-85
2022/06/18 13:44:05;;;;;;;5.38;2.88;;;31.00;9.90;;;;;;5089054;28;20197;-86
2022/06/18 13:46:39;;;;;;;4.55;2.47;;;31.00;8.80;;;;;;5093748;28;20211;-85
2022/06/18 13:49:12;;;;;;;6.28;2.88;;;31.00;7.50;;;;;;5080268;28;20228;-85
2022/06/18 13:51:41;;;;;;;7.05;2.88;;;31.00;9.30;;;;;;5090742;28;20208;-84
2022/06/18 13:54:13;;;;;;;7.22;2.90;;;30.80;9.40;;;;;;5088349;28;20590;-85
2022/06/18 13:57:07;;;;;;;6.38;3.08;;;30.90;9.60;;;;;;5086171;28;20208;-94
2022/06/18 13:59:35;;;;;;;6.85;3.17;;;30.80;8.90;;;;;;5064848;28;20200;-89
2022/06/18 14:02:26;;;;;;;6.10;2.83;;;30.70;8.70;;;;;;5077636;28;20201;-86